createdAt,value
2016-11-07T00:00:05.097Z,997.62
2016-11-07T00:00:15.090Z,997.6
2016-11-07T00:00:25.085Z,997.57
2016-11-07T00:00:35.079Z,997.63
2016-11-07T00:00:45.072Z,997.6
2016-11-07T00:00:55.066Z,997.6
2016-11-07T00:01:05.060Z,997.56
2016-11-07T00:01:15.056Z,997.57
2016-11-07T00:01:25.046Z,997.56
2016-11-07T00:01:35.042Z,997.56
2016-11-07T00:01:45.038Z,997.51
2016-11-07T00:01:55.029Z,997.55
2016-11-07T00:02:05.024Z,997.54
2016-11-07T00:02:15.018Z,997.54
2016-11-07T00:02:25.012Z,997.56
2016-11-07T00:02:35.005Z,997.57
2016-11-07T00:02:45.001Z,997.54
2016-11-07T00:02:54.994Z,997.59
2016-11-07T00:03:04.990Z,997.63
2016-11-07T00:03:14.982Z,997.59
2016-11-07T00:03:24.977Z,997.61
2016-11-07T00:03:34.971Z,997.63
2016-11-07T00:03:44.964Z,997.57
2016-11-07T00:03:54.960Z,997.57
2016-11-07T00:04:04.952Z,997.58
2016-11-07T00:04:14.950Z,997.64
2016-11-07T00:04:24.940Z,997.59
2016-11-07T00:04:34.935Z,997.64
2016-11-07T00:04:44.929Z,997.59
2016-11-07T00:04:54.921Z,997.62
2016-11-07T00:05:04.916Z,997.65
2016-11-07T00:05:14.909Z,997.64
2016-11-07T00:05:24.902Z,997.64
2016-11-07T00:05:34.900Z,997.62
2016-11-07T00:05:44.892Z,997.63
2016-11-07T00:05:54.886Z,997.64
2016-11-07T00:06:04.880Z,997.61
2016-11-07T00:06:14.872Z,997.64
2016-11-07T00:06:24.869Z,997.66
2016-11-07T00:06:35.000Z,997.64
2016-11-07T00:06:44.855Z,997.64
2016-11-07T00:06:54.850Z,997.66
2016-11-07T00:07:04.844Z,997.62
2016-11-07T00:07:14.838Z,997.67
2016-11-07T00:07:24.832Z,997.64
2016-11-07T00:07:34.825Z,997.61
2016-11-07T00:07:44.821Z,997.6
2016-11-07T00:07:54.814Z,997.66
2016-11-07T00:08:04.808Z,997.67
2016-11-07T00:08:14.803Z,997.63
2016-11-07T00:08:24.797Z,997.69
2016-11-07T00:08:34.789Z,997.67
2016-11-07T00:08:44.784Z,997.65
2016-11-07T00:08:54.776Z,997.64
2016-11-07T00:09:04.772Z,997.65
2016-11-07T00:09:14.765Z,997.7
2016-11-07T00:09:24.762Z,997.66
2016-11-07T00:09:34.754Z,997.68
2016-11-07T00:09:44.749Z,997.65
2016-11-07T00:09:54.743Z,997.68
2016-11-07T00:10:04.735Z,997.64
2016-11-07T00:10:14.730Z,997.65
2016-11-07T00:10:24.726Z,997.65
2016-11-07T00:10:34.718Z,997.67
2016-11-07T00:10:44.711Z,997.63
2016-11-07T00:10:54.735Z,997.66
2016-11-07T00:11:04.699Z,997.67
2016-11-07T00:11:14.692Z,997.69
2016-11-07T00:11:24.688Z,997.66
2016-11-07T00:11:34.705Z,997.64
2016-11-07T00:11:44.697Z,997.69
2016-11-07T00:11:54.671Z,997.67
2016-11-07T00:12:04.662Z,997.66
2016-11-07T00:12:14.658Z,997.69
2016-11-07T00:12:24.652Z,997.7
2016-11-07T00:12:34.647Z,997.71
2016-11-07T00:12:44.640Z,997.69
2016-11-07T00:12:54.633Z,997.64
2016-11-07T00:13:04.627Z,997.69
2016-11-07T00:13:14.624Z,997.65
2016-11-07T00:13:24.615Z,997.65
2016-11-07T00:13:34.610Z,997.67
2016-11-07T00:13:44.604Z,997.66
2016-11-07T00:13:54.597Z,997.71
2016-11-07T00:14:04.592Z,997.69
2016-11-07T00:14:14.584Z,997.66
2016-11-07T00:14:24.580Z,997.64
2016-11-07T00:14:34.572Z,997.66
2016-11-07T00:14:44.567Z,997.69
2016-11-07T00:14:54.563Z,997.67
2016-11-07T00:15:04.556Z,997.64
2016-11-07T00:15:14.549Z,997.67
2016-11-07T00:15:24.542Z,997.65
2016-11-07T00:15:34.537Z,997.63
2016-11-07T00:15:44.531Z,997.64
2016-11-07T00:15:54.525Z,997.66
2016-11-07T00:16:04.519Z,997.66
2016-11-07T00:16:14.513Z,997.66
2016-11-07T00:16:24.508Z,997.64
2016-11-07T00:16:34.501Z,997.67
2016-11-07T00:16:44.495Z,997.68
2016-11-07T00:16:54.489Z,997.67
2016-11-07T00:17:04.482Z,997.67
2016-11-07T00:17:14.477Z,997.67
2016-11-07T00:17:24.471Z,997.69
2016-11-07T00:17:34.464Z,997.66
2016-11-07T00:17:44.460Z,997.69
2016-11-07T00:17:54.452Z,997.66
2016-11-07T00:18:04.447Z,997.68
2016-11-07T00:18:14.444Z,997.68
2016-11-07T00:18:24.436Z,997.69
2016-11-07T00:18:34.431Z,997.66
2016-11-07T00:18:44.423Z,997.66
2016-11-07T00:18:54.417Z,997.7
2016-11-07T00:19:04.411Z,997.67
2016-11-07T00:19:14.405Z,997.68
2016-11-07T00:19:24.400Z,997.6
2016-11-07T00:19:34.393Z,997.68
2016-11-07T00:19:44.389Z,997.65
2016-11-07T00:19:54.382Z,997.65
2016-11-07T00:20:04.376Z,997.69
2016-11-07T00:20:14.368Z,997.65
2016-11-07T00:20:24.392Z,997.68
2016-11-07T00:20:34.358Z,997.67
2016-11-07T00:20:44.351Z,997.66
2016-11-07T00:20:54.343Z,997.69
2016-11-07T00:21:04.339Z,997.71
2016-11-07T00:21:14.334Z,997.67
2016-11-07T00:21:24.326Z,997.68
2016-11-07T00:21:34.319Z,997.65
2016-11-07T00:21:44.319Z,997.67
2016-11-07T00:21:54.308Z,997.68
2016-11-07T00:22:04.304Z,997.65
2016-11-07T00:22:14.296Z,997.67
2016-11-07T00:22:24.291Z,997.69
2016-11-07T00:22:34.286Z,997.72
2016-11-07T00:22:44.278Z,997.71
2016-11-07T00:22:54.272Z,997.75
2016-11-07T00:23:04.266Z,997.69
2016-11-07T00:23:14.262Z,997.65
2016-11-07T00:23:24.255Z,997.66
2016-11-07T00:23:34.248Z,997.71
2016-11-07T00:23:44.242Z,997.65
2016-11-07T00:23:54.237Z,997.64
2016-11-07T00:24:04.231Z,997.69
2016-11-07T00:24:14.226Z,997.65
2016-11-07T00:24:24.219Z,997.66
2016-11-07T00:24:34.212Z,997.7
2016-11-07T00:24:44.230Z,997.69
2016-11-07T00:24:54.200Z,997.72
2016-11-07T00:25:04.529Z,997.72
2016-11-07T00:25:14.188Z,997.73
2016-11-07T00:25:24.182Z,997.68
2016-11-07T00:25:34.204Z,997.68
2016-11-07T00:25:44.170Z,997.66
2016-11-07T00:25:54.164Z,997.7
2016-11-07T00:26:04.177Z,997.73
2016-11-07T00:26:14.152Z,997.66
2016-11-07T00:26:24.146Z,997.66
2016-11-07T00:26:34.140Z,997.72
2016-11-07T00:26:44.134Z,997.73
2016-11-07T00:26:54.127Z,997.72
2016-11-07T00:27:04.123Z,997.68
2016-11-07T00:27:14.115Z,997.72
2016-11-07T00:27:24.111Z,997.71
2016-11-07T00:27:34.105Z,997.68
2016-11-07T00:27:44.098Z,997.75
2016-11-07T00:27:54.093Z,997.7
2016-11-07T00:28:04.087Z,997.71
2016-11-07T00:28:14.082Z,997.73
2016-11-07T00:28:24.076Z,997.72
2016-11-07T00:28:34.093Z,997.69
2016-11-07T00:28:44.062Z,997.75
2016-11-07T00:28:54.055Z,997.71
2016-11-07T00:29:04.051Z,997.69
2016-11-07T00:29:14.044Z,997.72
2016-11-07T00:29:24.039Z,997.77
2016-11-07T00:29:34.032Z,997.77
2016-11-07T00:29:44.026Z,997.79
2016-11-07T00:29:54.020Z,997.78
2016-11-07T00:30:04.118Z,997.81
2016-11-07T00:30:14.008Z,997.72
2016-11-07T00:30:24.035Z,997.76
2016-11-07T00:30:33.998Z,997.75
2016-11-07T00:30:43.990Z,997.72
2016-11-07T00:30:53.986Z,997.79
2016-11-07T00:31:03.978Z,997.73
2016-11-07T00:31:13.974Z,997.76
2016-11-07T00:31:23.966Z,997.79
2016-11-07T00:31:33.960Z,997.78
2016-11-07T00:31:43.953Z,997.75
2016-11-07T00:31:53.950Z,997.79
2016-11-07T00:32:03.942Z,997.79
2016-11-07T00:32:13.937Z,997.78
2016-11-07T00:32:23.931Z,997.78
2016-11-07T00:32:33.925Z,997.78
2016-11-07T00:32:43.917Z,997.82
2016-11-07T00:32:53.912Z,997.83
2016-11-07T00:33:03.907Z,997.81
2016-11-07T00:33:13.899Z,997.84
2016-11-07T00:33:23.895Z,997.8
2016-11-07T00:33:33.889Z,997.84
2016-11-07T00:33:43.888Z,997.85
2016-11-07T00:33:53.876Z,997.85
2016-11-07T00:34:03.870Z,997.84
2016-11-07T00:34:13.863Z,997.88
2016-11-07T00:34:23.857Z,997.85
2016-11-07T00:34:33.851Z,997.84
2016-11-07T00:34:43.947Z,997.89
2016-11-07T00:34:53.841Z,997.9
2016-11-07T00:35:03.836Z,997.87
2016-11-07T00:35:13.827Z,997.87
2016-11-07T00:35:23.822Z,997.84
2016-11-07T00:35:33.816Z,997.87
2016-11-07T00:35:43.810Z,997.9
2016-11-07T00:35:53.805Z,997.88
2016-11-07T00:36:03.798Z,997.87
2016-11-07T00:36:13.791Z,997.87
2016-11-07T00:36:23.785Z,997.9
2016-11-07T00:36:33.779Z,997.92
2016-11-07T00:36:43.775Z,997.92
2016-11-07T00:36:53.789Z,997.86
2016-11-07T00:37:03.785Z,997.89
2016-11-07T00:37:13.756Z,997.91
2016-11-07T00:37:23.749Z,997.91
2016-11-07T00:37:33.745Z,997.9
2016-11-07T00:37:43.738Z,997.87
2016-11-07T00:37:53.733Z,997.91
2016-11-07T00:38:03.725Z,997.93
2016-11-07T00:38:13.739Z,997.93
2016-11-07T00:38:23.713Z,997.93
2016-11-07T00:38:33.707Z,997.99
2016-11-07T00:38:43.701Z,997.97
2016-11-07T00:38:53.696Z,997.98
2016-11-07T00:39:03.690Z,997.95
2016-11-07T00:39:13.699Z,997.92
2016-11-07T00:39:23.679Z,998.03
2016-11-07T00:39:33.671Z,997.94
2016-11-07T00:39:43.665Z,997.98
2016-11-07T00:39:53.661Z,997.99
2016-11-07T00:40:03.654Z,997.97
2016-11-07T00:40:13.649Z,997.98
2016-11-07T00:40:23.640Z,997.98
2016-11-07T00:40:33.636Z,997.96
2016-11-07T00:40:43.630Z,998
2016-11-07T00:40:53.623Z,997.96
2016-11-07T00:41:03.616Z,998.01
2016-11-07T00:41:13.610Z,998
2016-11-07T00:41:23.604Z,997.97
2016-11-07T00:41:33.598Z,998.02
2016-11-07T00:41:43.594Z,997.97
2016-11-07T00:41:53.587Z,997.98
2016-11-07T00:42:03.582Z,997.93
2016-11-07T00:42:13.577Z,997.94
2016-11-07T00:42:23.570Z,997.98
2016-11-07T00:42:33.563Z,997.96
2016-11-07T00:42:43.558Z,997.97
2016-11-07T00:42:53.552Z,997.99
2016-11-07T00:43:03.568Z,997.99
2016-11-07T00:43:13.539Z,997.98
2016-11-07T00:43:23.540Z,997.99
2016-11-07T00:43:33.527Z,997.96
2016-11-07T00:43:43.521Z,998
2016-11-07T00:43:53.515Z,998
2016-11-07T00:44:03.508Z,998
2016-11-07T00:44:13.504Z,998.02
2016-11-07T00:44:23.497Z,997.98
2016-11-07T00:44:33.491Z,998.07
2016-11-07T00:44:43.486Z,998
2016-11-07T00:44:53.479Z,998.03
2016-11-07T00:45:03.474Z,998.06
2016-11-07T00:45:13.470Z,997.99
2016-11-07T00:45:23.481Z,998.02
2016-11-07T00:45:33.456Z,998.03
2016-11-07T00:45:43.449Z,998.02
2016-11-07T00:45:53.445Z,998.04
2016-11-07T00:46:03.437Z,998
2016-11-07T00:46:13.453Z,997.99
2016-11-07T00:46:23.424Z,998
2016-11-07T00:46:33.420Z,998.04
2016-11-07T00:46:43.411Z,998.03
2016-11-07T00:46:53.408Z,998.07
2016-11-07T00:47:03.401Z,998.05
2016-11-07T00:47:13.421Z,998.07
2016-11-07T00:47:23.389Z,998.03
2016-11-07T00:47:33.382Z,998.08
2016-11-07T00:47:43.377Z,998.05
2016-11-07T00:47:53.394Z,998.03
2016-11-07T00:48:03.363Z,997.98
2016-11-07T00:48:13.363Z,998.04
2016-11-07T00:48:23.354Z,998.04
2016-11-07T00:48:33.347Z,998.03
2016-11-07T00:48:43.341Z,998.06
2016-11-07T00:48:53.333Z,998.07
2016-11-07T00:49:03.330Z,998.03
2016-11-07T00:49:13.324Z,998.02
2016-11-07T00:49:23.316Z,998.05
2016-11-07T00:49:33.309Z,998.07
2016-11-07T00:49:43.425Z,998.06
2016-11-07T00:49:53.303Z,998.08
2016-11-07T00:50:03.293Z,998.05
2016-11-07T00:50:13.287Z,998.06
2016-11-07T00:50:23.281Z,998.08
2016-11-07T00:50:33.275Z,998.14
2016-11-07T00:50:43.268Z,998.07
2016-11-07T00:50:53.262Z,998.06
2016-11-07T00:51:03.257Z,998.08
2016-11-07T00:51:13.277Z,998.08
2016-11-07T00:51:23.245Z,998.08
2016-11-07T00:51:33.238Z,998.07
2016-11-07T00:51:43.232Z,998.11
2016-11-07T00:51:53.228Z,998.08
2016-11-07T00:52:03.222Z,998.07
2016-11-07T00:52:13.218Z,998.09
2016-11-07T00:52:23.209Z,998.1
2016-11-07T00:52:33.202Z,998.13
2016-11-07T00:52:43.197Z,998.11
2016-11-07T00:52:53.191Z,998.09
2016-11-07T00:53:03.183Z,998.12
2016-11-07T00:53:13.180Z,998.12
2016-11-07T00:53:23.174Z,998.1
2016-11-07T00:53:33.166Z,998.11
2016-11-07T00:53:43.160Z,998.05
2016-11-07T00:53:53.154Z,998.1
2016-11-07T00:54:03.149Z,998.18
2016-11-07T00:54:13.142Z,998.09
2016-11-07T00:54:23.136Z,998.08
2016-11-07T00:54:33.132Z,998.11
2016-11-07T00:54:43.125Z,998.11
2016-11-07T00:54:53.118Z,998.13
2016-11-07T00:55:03.112Z,998.13
2016-11-07T00:55:13.106Z,998.1
2016-11-07T00:55:23.101Z,998.12
2016-11-07T00:55:33.095Z,998.16
2016-11-07T00:55:43.089Z,998.09
2016-11-07T00:55:53.082Z,998.12
2016-11-07T00:56:03.412Z,998.08
2016-11-07T00:56:13.068Z,998.14
2016-11-07T00:56:23.093Z,998.14
2016-11-07T00:56:33.058Z,998.09
2016-11-07T00:56:43.053Z,998.14
2016-11-07T00:56:53.047Z,998.09
2016-11-07T00:57:03.040Z,998.13
2016-11-07T00:57:13.139Z,998.17
2016-11-07T00:57:23.029Z,998.15
2016-11-07T00:57:33.022Z,998.11
2016-11-07T00:57:43.018Z,998.15
2016-11-07T00:57:53.009Z,998.14
2016-11-07T00:58:03.004Z,998.12
2016-11-07T00:58:12.998Z,998.12
2016-11-07T00:58:23.329Z,998.12
2016-11-07T00:58:32.986Z,998.16
2016-11-07T00:58:42.979Z,998.11
2016-11-07T00:58:52.978Z,998.14
2016-11-07T00:59:02.993Z,998.12
2016-11-07T00:59:12.962Z,998.14
2016-11-07T00:59:22.955Z,998.13
2016-11-07T00:59:32.949Z,998.17
2016-11-07T00:59:42.945Z,998.14
2016-11-07T00:59:52.938Z,998.18
2016-11-07T01:00:02.931Z,998.13
2016-11-07T01:00:12.926Z,998.21
2016-11-07T01:00:23.024Z,998.2
2016-11-07T01:00:32.916Z,998.22
2016-11-07T01:00:42.908Z,998.16
2016-11-07T01:00:52.902Z,998.17
2016-11-07T01:01:02.896Z,998.19
2016-11-07T01:01:12.889Z,998.15
2016-11-07T01:01:22.884Z,998.2
2016-11-07T01:01:32.879Z,998.17
2016-11-07T01:01:42.874Z,998.2
2016-11-07T01:01:52.866Z,998.16
2016-11-07T01:02:02.860Z,998.17
2016-11-07T01:02:12.853Z,998.22
2016-11-07T01:02:22.848Z,998.22
2016-11-07T01:02:32.843Z,998.19
2016-11-07T01:02:42.836Z,998.21
2016-11-07T01:02:52.830Z,998.14
2016-11-07T01:03:02.849Z,998.2
2016-11-07T01:03:12.819Z,998.23
2016-11-07T01:03:22.812Z,998.22
2016-11-07T01:03:32.829Z,998.21
2016-11-07T01:03:42.801Z,998.23
2016-11-07T01:03:52.795Z,998.18
2016-11-07T01:04:02.788Z,998.17
2016-11-07T01:04:12.781Z,998.21
2016-11-07T01:04:22.777Z,998.22
2016-11-07T01:04:32.769Z,998.19
2016-11-07T01:04:42.764Z,998.19
2016-11-07T01:04:52.757Z,998.22
2016-11-07T01:05:02.751Z,998.18
2016-11-07T01:05:12.747Z,998.22
2016-11-07T01:05:22.740Z,998.22
2016-11-07T01:05:32.733Z,998.24
2016-11-07T01:05:42.729Z,998.2
2016-11-07T01:05:52.721Z,998.18
2016-11-07T01:06:02.741Z,998.2
2016-11-07T01:06:12.709Z,998.26
2016-11-07T01:06:22.704Z,998.26
2016-11-07T01:06:32.698Z,998.24
2016-11-07T01:06:42.690Z,998.28
2016-11-07T01:06:52.686Z,998.26
2016-11-07T01:07:02.680Z,998.22
2016-11-07T01:07:12.673Z,998.22
2016-11-07T01:07:22.667Z,998.18
2016-11-07T01:07:32.660Z,998.25
2016-11-07T01:07:42.654Z,998.22
2016-11-07T01:07:52.650Z,998.21
2016-11-07T01:08:02.643Z,998.23
2016-11-07T01:08:12.638Z,998.19
2016-11-07T01:08:22.632Z,998.18
2016-11-07T01:08:32.627Z,998.18
2016-11-07T01:08:42.619Z,998.24
2016-11-07T01:08:52.613Z,998.24
2016-11-07T01:09:02.607Z,998.27
2016-11-07T01:09:12.602Z,998.26
2016-11-07T01:09:22.595Z,998.23
2016-11-07T01:09:32.588Z,998.24
2016-11-07T01:09:42.585Z,998.24
2016-11-07T01:09:52.577Z,998.25
2016-11-07T01:10:02.905Z,998.29
2016-11-07T01:10:12.564Z,998.28
2016-11-07T01:10:22.560Z,998.3
2016-11-07T01:10:32.555Z,998.2
2016-11-07T01:10:42.547Z,998.23
2016-11-07T01:10:52.540Z,998.3
2016-11-07T01:11:02.535Z,998.26
2016-11-07T01:11:12.529Z,998.23
2016-11-07T01:11:22.524Z,998.23
2016-11-07T01:11:32.516Z,998.23
2016-11-07T01:11:42.511Z,998.21
2016-11-07T01:11:52.506Z,998.25
2016-11-07T01:12:02.500Z,998.22
2016-11-07T01:12:12.493Z,998.23
2016-11-07T01:12:22.488Z,998.23
2016-11-07T01:12:32.482Z,998.2
2016-11-07T01:12:42.478Z,998.27
2016-11-07T01:12:52.468Z,998.22
2016-11-07T01:13:02.463Z,998.25
2016-11-07T01:13:12.457Z,998.24
2016-11-07T01:13:22.451Z,998.28
2016-11-07T01:13:32.446Z,998.25
2016-11-07T01:13:42.439Z,998.31
2016-11-07T01:13:52.433Z,998.27
2016-11-07T01:14:02.427Z,998.25
2016-11-07T01:14:12.420Z,998.26
2016-11-07T01:14:22.416Z,998.21
2016-11-07T01:14:32.408Z,998.21
2016-11-07T01:14:42.403Z,998.28
2016-11-07T01:14:52.397Z,998.3
2016-11-07T01:15:02.391Z,998.26
2016-11-07T01:15:12.385Z,998.27
2016-11-07T01:15:22.379Z,998.24
2016-11-07T01:15:32.372Z,998.24
2016-11-07T01:15:42.367Z,998.26
2016-11-07T01:15:52.361Z,998.25
2016-11-07T01:16:02.354Z,998.25
2016-11-07T01:16:12.349Z,998.26
2016-11-07T01:16:22.344Z,998.28
2016-11-07T01:16:32.336Z,998.24
2016-11-07T01:16:42.330Z,998.28
2016-11-07T01:16:52.326Z,998.27
2016-11-07T01:17:02.320Z,998.26
2016-11-07T01:17:12.312Z,998.28
2016-11-07T01:17:22.306Z,998.26
2016-11-07T01:17:32.301Z,998.29
2016-11-07T01:17:42.296Z,998.26
2016-11-07T01:17:52.289Z,998.28
2016-11-07T01:18:02.283Z,998.27
2016-11-07T01:18:12.275Z,998.27
2016-11-07T01:18:22.272Z,998.3
2016-11-07T01:18:32.265Z,998.3
2016-11-07T01:18:42.259Z,998.29
2016-11-07T01:18:52.251Z,998.3
2016-11-07T01:19:02.248Z,998.28
2016-11-07T01:19:12.239Z,998.33
2016-11-07T01:19:22.235Z,998.31
2016-11-07T01:19:32.228Z,998.3
2016-11-07T01:19:42.224Z,998.32
2016-11-07T01:19:52.218Z,998.35
2016-11-07T01:20:02.210Z,998.32
2016-11-07T01:20:12.204Z,998.34
2016-11-07T01:20:22.198Z,998.36
2016-11-07T01:20:32.192Z,998.36
2016-11-07T01:20:42.186Z,998.31
2016-11-07T01:20:52.182Z,998.42
2016-11-07T01:21:02.174Z,998.28
2016-11-07T01:21:12.170Z,998.31
2016-11-07T01:21:22.163Z,998.33
2016-11-07T01:21:32.157Z,998.32
2016-11-07T01:21:42.151Z,998.42
2016-11-07T01:21:52.145Z,998.33
2016-11-07T01:22:02.139Z,998.37
2016-11-07T01:22:12.133Z,998.38
2016-11-07T01:22:22.126Z,998.42
2016-11-07T01:22:32.121Z,998.35
2016-11-07T01:22:42.117Z,998.36
2016-11-07T01:22:52.108Z,998.32
2016-11-07T01:23:02.103Z,998.36
2016-11-07T01:23:12.431Z,998.31
2016-11-07T01:23:22.092Z,998.33
2016-11-07T01:23:32.085Z,998.31
2016-11-07T01:23:42.078Z,998.35
2016-11-07T01:23:52.074Z,998.34
2016-11-07T01:24:02.066Z,998.41
2016-11-07T01:24:12.060Z,998.36
2016-11-07T01:24:22.055Z,998.39
2016-11-07T01:24:32.048Z,998.37
2016-11-07T01:24:42.043Z,998.36
2016-11-07T01:24:52.036Z,998.39
2016-11-07T01:25:02.030Z,998.39
2016-11-07T01:25:12.023Z,998.34
2016-11-07T01:25:22.020Z,998.38
2016-11-07T01:25:32.013Z,998.43
2016-11-07T01:25:42.006Z,998.42
2016-11-07T01:25:52.000Z,998.33
2016-11-07T01:26:01.995Z,998.36
2016-11-07T01:26:11.989Z,998.39
2016-11-07T01:26:21.983Z,998.37
2016-11-07T01:26:31.977Z,998.38
2016-11-07T01:26:41.972Z,998.38
2016-11-07T01:26:51.964Z,998.39
2016-11-07T01:27:01.960Z,998.39
2016-11-07T01:27:11.952Z,998.39
2016-11-07T01:27:21.946Z,998.42
2016-11-07T01:27:31.939Z,998.33
2016-11-07T01:27:41.958Z,998.42
2016-11-07T01:27:51.929Z,998.34
2016-11-07T01:28:02.257Z,998.37
2016-11-07T01:28:11.916Z,998.36
2016-11-07T01:28:21.911Z,998.36
2016-11-07T01:28:31.905Z,998.37
2016-11-07T01:28:41.900Z,998.4
2016-11-07T01:28:51.892Z,998.36
2016-11-07T01:29:01.885Z,998.35
2016-11-07T01:29:11.880Z,998.35
2016-11-07T01:29:21.874Z,998.37
2016-11-07T01:29:31.868Z,998.36
2016-11-07T01:29:41.887Z,998.3
2016-11-07T01:29:51.856Z,998.31
2016-11-07T01:30:01.851Z,998.33
2016-11-07T01:30:11.844Z,998.33
2016-11-07T01:30:21.837Z,998.31
2016-11-07T01:30:31.833Z,998.31
2016-11-07T01:30:41.828Z,998.32
2016-11-07T01:30:51.822Z,998.37
2016-11-07T01:31:01.817Z,998.37
2016-11-07T01:31:11.808Z,998.38
2016-11-07T01:31:21.802Z,998.36
2016-11-07T01:31:31.796Z,998.36
2016-11-07T01:31:41.788Z,998.33
2016-11-07T01:31:51.784Z,998.34
2016-11-07T01:32:01.778Z,998.36
2016-11-07T01:32:11.773Z,998.31
2016-11-07T01:32:21.766Z,998.32
2016-11-07T01:32:31.762Z,998.31
2016-11-07T01:32:41.755Z,998.31
2016-11-07T01:32:51.749Z,998.36
2016-11-07T01:33:01.743Z,998.32
2016-11-07T01:33:11.758Z,998.32
2016-11-07T01:33:21.731Z,998.34
2016-11-07T01:33:31.724Z,998.31
2016-11-07T01:33:41.720Z,998.28
2016-11-07T01:33:51.710Z,998.33
2016-11-07T01:34:01.707Z,998.32
2016-11-07T01:34:11.701Z,998.35
2016-11-07T01:34:21.694Z,998.35
2016-11-07T01:34:31.689Z,998.28
2016-11-07T01:34:41.696Z,998.3
2016-11-07T01:34:51.676Z,998.35
2016-11-07T01:35:01.670Z,998.25
2016-11-07T01:35:11.663Z,998.33
2016-11-07T01:35:21.658Z,998.33
2016-11-07T01:35:31.652Z,998.32
2016-11-07T01:35:41.647Z,998.33
2016-11-07T01:35:51.639Z,998.27
2016-11-07T01:36:01.633Z,998.34
2016-11-07T01:36:11.629Z,998.29
2016-11-07T01:36:21.622Z,998.33
2016-11-07T01:36:31.615Z,998.32
2016-11-07T01:36:41.610Z,998.33
2016-11-07T01:36:51.603Z,998.23
2016-11-07T01:37:01.596Z,998.29
2016-11-07T01:37:11.592Z,998.28
2016-11-07T01:37:21.587Z,998.34
2016-11-07T01:37:31.580Z,998.28
2016-11-07T01:37:41.574Z,998.33
2016-11-07T01:37:51.568Z,998.25
2016-11-07T01:38:01.561Z,998.29
2016-11-07T01:38:11.555Z,998.27
2016-11-07T01:38:21.551Z,998.3
2016-11-07T01:38:31.571Z,998.27
2016-11-07T01:38:41.871Z,998.27
2016-11-07T01:38:51.533Z,998.24
2016-11-07T01:39:01.526Z,998.3
2016-11-07T01:39:11.520Z,998.27
2016-11-07T01:39:21.514Z,998.24
2016-11-07T01:39:31.506Z,998.27
2016-11-07T01:39:41.502Z,998.24
2016-11-07T01:39:51.496Z,998.24
2016-11-07T01:40:01.518Z,998.29
2016-11-07T01:40:11.483Z,998.3
2016-11-07T01:40:21.479Z,998.32
2016-11-07T01:40:31.471Z,998.3
2016-11-07T01:40:41.465Z,998.26
2016-11-07T01:40:51.460Z,998.32
2016-11-07T01:41:01.453Z,998.26
2016-11-07T01:41:11.447Z,998.26
2016-11-07T01:41:21.442Z,998.35
2016-11-07T01:41:31.436Z,998.28
2016-11-07T01:41:41.429Z,998.31
2016-11-07T01:41:51.422Z,998.3
2016-11-07T01:42:01.418Z,998.32
2016-11-07T01:42:11.411Z,998.32
2016-11-07T01:42:21.767Z,998.31
2016-11-07T01:42:31.400Z,998.33
2016-11-07T01:42:41.415Z,998.36
2016-11-07T01:42:51.388Z,998.32
2016-11-07T01:43:01.381Z,998.34
2016-11-07T01:43:11.375Z,998.32
2016-11-07T01:43:21.369Z,998.35
2016-11-07T01:43:31.364Z,998.26
2016-11-07T01:43:41.462Z,998.34
2016-11-07T01:43:51.351Z,998.35
2016-11-07T01:44:01.345Z,998.35
2016-11-07T01:44:11.340Z,998.31
2016-11-07T01:44:21.333Z,998.33
2016-11-07T01:44:31.327Z,998.33
2016-11-07T01:44:41.322Z,998.3
2016-11-07T01:44:51.314Z,998.35
2016-11-07T01:45:01.645Z,998.31
2016-11-07T01:45:11.302Z,998.29
2016-11-07T01:45:21.297Z,998.3
2016-11-07T01:45:31.291Z,998.32
2016-11-07T01:45:41.285Z,998.36
2016-11-07T01:45:51.279Z,998.31
2016-11-07T01:46:01.299Z,998.31
2016-11-07T01:46:11.265Z,998.34
2016-11-07T01:46:21.262Z,998.37
2016-11-07T01:46:31.254Z,998.35
2016-11-07T01:46:41.248Z,998.35
2016-11-07T01:46:51.243Z,998.32
2016-11-07T01:47:01.238Z,998.32
2016-11-07T01:47:11.232Z,998.37
2016-11-07T01:47:21.223Z,998.34
2016-11-07T01:47:31.218Z,998.33
2016-11-07T01:47:41.212Z,998.34
2016-11-07T01:47:51.207Z,998.35
2016-11-07T01:48:01.200Z,998.28
2016-11-07T01:48:11.196Z,998.33
2016-11-07T01:48:21.188Z,998.36
2016-11-07T01:48:31.184Z,998.34
2016-11-07T01:48:41.178Z,998.33
2016-11-07T01:48:51.169Z,998.34
2016-11-07T01:49:01.166Z,998.38
2016-11-07T01:49:11.160Z,998.34
2016-11-07T01:49:21.153Z,998.36
2016-11-07T01:49:31.146Z,998.38
2016-11-07T01:49:41.141Z,998.39
2016-11-07T01:49:51.135Z,998.36
2016-11-07T01:50:01.129Z,998.39
2016-11-07T01:50:11.123Z,998.43
2016-11-07T01:50:21.116Z,998.37
2016-11-07T01:50:31.444Z,998.42
2016-11-07T01:50:41.104Z,998.45
2016-11-07T01:50:51.098Z,998.42
2016-11-07T01:51:01.092Z,998.39
2016-11-07T01:51:11.087Z,998.42
2016-11-07T01:51:21.080Z,998.48
2016-11-07T01:51:31.075Z,998.41
2016-11-07T01:51:41.069Z,998.42
2016-11-07T01:51:51.063Z,998.44
2016-11-07T01:52:01.056Z,998.38
2016-11-07T01:52:11.051Z,998.51
2016-11-07T01:52:21.045Z,998.49
2016-11-07T01:52:31.040Z,998.4
2016-11-07T01:52:41.032Z,998.41
2016-11-07T01:52:51.026Z,998.43
2016-11-07T01:53:01.020Z,998.45
2016-11-07T01:53:11.016Z,998.39
2016-11-07T01:53:21.007Z,998.41
2016-11-07T01:53:31.003Z,998.42
2016-11-07T01:53:41.000Z,998.42
2016-11-07T01:53:50.990Z,998.46
2016-11-07T01:54:00.985Z,998.41
2016-11-07T01:54:10.978Z,998.42
2016-11-07T01:54:20.972Z,998.45
2016-11-07T01:54:30.967Z,998.47
2016-11-07T01:54:40.959Z,998.43
2016-11-07T01:54:50.954Z,998.44
2016-11-07T01:55:00.949Z,998.5
2016-11-07T01:55:10.943Z,998.46
2016-11-07T01:55:20.936Z,998.46
2016-11-07T01:55:30.931Z,998.46
2016-11-07T01:55:40.924Z,998.47
2016-11-07T01:55:50.919Z,998.48
2016-11-07T01:56:00.911Z,998.45
2016-11-07T01:56:10.905Z,998.5
2016-11-07T01:56:20.901Z,998.45
2016-11-07T01:56:30.894Z,998.48
2016-11-07T01:56:40.889Z,998.45
2016-11-07T01:56:50.883Z,998.46
2016-11-07T01:57:00.876Z,998.46
2016-11-07T01:57:10.871Z,998.47
2016-11-07T01:57:20.863Z,998.48
2016-11-07T01:57:30.858Z,998.44
2016-11-07T01:57:40.852Z,998.46
2016-11-07T01:57:50.847Z,998.49
2016-11-07T01:58:00.841Z,998.47
2016-11-07T01:58:10.833Z,998.48
2016-11-07T01:58:20.829Z,998.53
2016-11-07T01:58:30.822Z,998.5
2016-11-07T01:58:40.815Z,998.46
2016-11-07T01:58:50.810Z,998.51
2016-11-07T01:59:00.804Z,998.5
2016-11-07T01:59:10.798Z,998.51
2016-11-07T01:59:20.792Z,998.49
2016-11-07T01:59:30.786Z,998.48
2016-11-07T01:59:40.780Z,998.5
2016-11-07T01:59:50.776Z,998.5
2016-11-07T02:00:00.768Z,998.52
2016-11-07T02:00:10.896Z,998.49
2016-11-07T02:00:20.755Z,998.48
2016-11-07T02:00:31.086Z,998.48
2016-11-07T02:00:40.744Z,998.51
2016-11-07T02:00:50.736Z,998.5
2016-11-07T02:01:00.734Z,998.48
2016-11-07T02:01:10.727Z,998.51
2016-11-07T02:01:20.719Z,998.48
2016-11-07T02:01:30.715Z,998.46
2016-11-07T02:01:40.708Z,998.48
2016-11-07T02:01:50.701Z,998.46
2016-11-07T02:02:00.697Z,998.48
2016-11-07T02:02:10.687Z,998.45
2016-11-07T02:02:20.787Z,998.52
2016-11-07T02:02:30.677Z,998.45
2016-11-07T02:02:40.672Z,998.47
2016-11-07T02:02:50.666Z,998.45
2016-11-07T02:03:00.660Z,998.5
2016-11-07T02:03:10.653Z,998.43
2016-11-07T02:03:20.646Z,998.49
2016-11-07T02:03:30.641Z,998.46
2016-11-07T02:03:40.637Z,998.51
2016-11-07T02:03:50.631Z,998.47
2016-11-07T02:04:00.623Z,998.5
2016-11-07T02:04:10.722Z,998.46
2016-11-07T02:04:20.614Z,998.5
2016-11-07T02:04:30.606Z,998.52
2016-11-07T02:04:40.600Z,998.45
2016-11-07T02:04:50.593Z,998.45
2016-11-07T02:05:00.588Z,998.48
2016-11-07T02:05:10.582Z,998.49